createdAt,value
2017-06-21T00:00:59.570Z,1009.78
2017-06-21T00:02:00.997Z,1009.73
2017-06-21T00:03:02.424Z,1009.76
2017-06-21T00:04:03.855Z,1009.73
2017-06-21T00:05:05.293Z,1009.77
2017-06-21T00:06:06.716Z,1009.79
2017-06-21T00:07:08.144Z,1009.80
2017-06-21T00:08:09.574Z,1009.79
2017-06-21T00:09:11.000Z,1009.82
2017-06-21T00:10:12.449Z,1009.76
2017-06-21T00:11:13.874Z,1009.79
2017-06-21T00:12:15.305Z,1009.75
2017-06-21T00:13:16.736Z,1009.80
2017-06-21T00:14:18.166Z,1009.74
2017-06-21T00:15:19.592Z,1009.76
2017-06-21T00:16:21.017Z,1009.72
2017-06-21T00:17:22.446Z,1009.77
2017-06-21T00:18:23.875Z,1009.78
2017-06-21T00:19:25.309Z,1009.77
2017-06-21T00:20:26.743Z,1009.81
2017-06-21T00:21:28.175Z,1009.78
2017-06-21T00:22:29.608Z,1009.77
2017-06-21T00:23:31.033Z,1009.79
2017-06-21T00:24:32.462Z,1009.75
2017-06-21T00:25:33.895Z,1009.74
2017-06-21T00:26:35.328Z,1009.74
2017-06-21T00:27:36.758Z,1009.69
2017-06-21T00:28:38.180Z,1009.67
2017-06-21T00:29:39.616Z,1009.69
2017-06-21T00:30:41.047Z,1009.71
2017-06-21T00:31:42.473Z,1009.65
2017-06-21T00:32:43.908Z,1009.65
2017-06-21T00:33:45.336Z,1009.68
2017-06-21T00:34:46.759Z,1009.69
2017-06-21T00:35:48.190Z,1009.65
2017-06-21T00:36:49.616Z,1009.71
2017-06-21T00:37:51.046Z,1009.68
2017-06-21T00:38:52.473Z,1009.67
2017-06-21T00:39:53.907Z,1009.65
2017-06-21T00:40:55.334Z,1009.68
2017-06-21T00:41:56.758Z,1009.67
2017-06-21T00:42:58.192Z,1009.68
2017-06-21T00:43:59.622Z,1009.68
2017-06-21T00:45:01.050Z,1009.67
2017-06-21T00:46:02.500Z,1009.57
2017-06-21T00:47:03.980Z,1009.64
2017-06-21T00:48:05.409Z,1009.63
2017-06-21T00:49:06.839Z,1009.62
2017-06-21T00:50:08.264Z,1009.62
2017-06-21T00:51:09.704Z,1009.66
2017-06-21T00:52:11.128Z,1009.63
2017-06-21T00:53:12.568Z,1009.66
2017-06-21T00:54:13.990Z,1009.62
2017-06-21T00:55:15.423Z,1009.63
2017-06-21T00:56:16.854Z,1009.61
2017-06-21T00:57:18.282Z,1009.57
2017-06-21T00:58:19.706Z,1009.61
2017-06-21T00:59:21.137Z,1009.60
2017-06-21T01:00:22.564Z,1009.56
2017-06-21T01:01:23.998Z,1009.59
2017-06-21T01:02:25.431Z,1009.64
2017-06-21T01:03:26.870Z,1009.63
2017-06-21T01:04:28.292Z,1009.64
2017-06-21T01:05:29.720Z,1009.64
2017-06-21T01:06:31.147Z,1009.64
2017-06-21T01:07:32.576Z,1009.64
2017-06-21T01:08:34.007Z,1009.63
2017-06-21T01:09:35.436Z,1009.62
2017-06-21T01:10:36.867Z,1009.65
2017-06-21T01:11:38.297Z,1009.64
2017-06-21T01:12:40.667Z,1009.63
2017-06-21T01:13:42.102Z,1009.59
2017-06-21T01:14:43.536Z,1009.64
2017-06-21T01:15:44.970Z,1009.59
2017-06-21T01:16:46.398Z,1009.60
2017-06-21T01:17:47.823Z,1009.66
2017-06-21T01:18:49.259Z,1009.60
2017-06-21T01:19:50.684Z,1009.64
2017-06-21T01:20:52.115Z,1009.64
2017-06-21T01:21:53.550Z,1009.69
2017-06-21T01:22:54.982Z,1009.70
2017-06-21T01:23:56.406Z,1009.70
2017-06-21T01:24:57.840Z,1009.72
2017-06-21T01:25:59.270Z,1009.69
2017-06-21T01:27:00.699Z,1009.72
2017-06-21T01:28:02.129Z,1009.71
2017-06-21T01:29:03.556Z,1009.70
2017-06-21T01:30:04.984Z,1009.73
2017-06-21T01:31:06.417Z,1009.70
2017-06-21T01:32:07.847Z,1009.77
2017-06-21T01:33:09.281Z,1009.76
2017-06-21T01:34:10.699Z,1009.74
2017-06-21T01:35:12.133Z,1009.77
2017-06-21T01:36:13.564Z,1009.71
2017-06-21T01:37:15.001Z,1009.68
2017-06-21T01:38:16.428Z,1009.65
2017-06-21T01:39:17.862Z,1009.69
2017-06-21T01:40:19.289Z,1009.66
2017-06-21T01:41:20.716Z,1009.66
2017-06-21T01:42:22.144Z,1009.73
2017-06-21T01:43:23.575Z,1009.70
2017-06-21T01:44:25.010Z,1009.75
2017-06-21T01:45:26.437Z,1009.75
2017-06-21T01:46:27.875Z,1009.73
2017-06-21T01:47:29.300Z,1009.74
2017-06-21T01:48:30.728Z,1009.73
2017-06-21T01:49:32.161Z,1009.75
2017-06-21T01:50:33.585Z,1009.69
2017-06-21T01:51:35.031Z,1009.70
2017-06-21T01:52:36.460Z,1009.74
2017-06-21T01:53:37.883Z,1009.79
2017-06-21T01:54:39.308Z,1009.74
2017-06-21T01:55:40.746Z,1009.78
2017-06-21T01:56:42.197Z,1009.79
2017-06-21T01:57:43.625Z,1009.83
2017-06-21T01:58:45.059Z,1009.83
2017-06-21T01:59:46.501Z,1009.78
2017-06-21T02:00:47.940Z,1009.82
2017-06-21T02:01:49.367Z,1009.76
2017-06-21T02:02:50.796Z,1009.78
2017-06-21T02:03:52.229Z,1009.74
2017-06-21T02:04:53.653Z,1009.79
2017-06-21T02:05:55.091Z,1009.78
2017-06-21T02:06:56.520Z,1009.72
2017-06-21T02:07:58.018Z,1009.70
2017-06-21T02:08:59.444Z,1009.73
2017-06-21T02:10:00.875Z,1009.68
2017-06-21T02:11:02.308Z,1009.68
2017-06-21T02:12:03.734Z,1009.68
2017-06-21T02:13:05.165Z,1009.74
2017-06-21T02:14:06.586Z,1009.73
2017-06-21T02:15:08.027Z,1009.70
2017-06-21T02:16:09.449Z,1009.72
2017-06-21T02:17:10.870Z,1009.69
2017-06-21T02:18:12.308Z,1009.72
2017-06-21T02:19:13.749Z,1009.68
2017-06-21T02:20:15.174Z,1009.68
2017-06-21T02:21:16.600Z,1009.64
2017-06-21T02:22:18.026Z,1009.65
2017-06-21T02:23:19.451Z,1009.68
2017-06-21T02:24:20.878Z,1009.67
2017-06-21T02:25:22.313Z,1009.64
2017-06-21T02:26:23.742Z,1009.68
2017-06-21T02:27:25.164Z,1009.63
2017-06-21T02:28:27.446Z,1009.67
2017-06-21T02:29:27.984Z,1009.65
2017-06-21T02:30:29.416Z,1009.63
2017-06-21T02:31:30.843Z,1009.68
2017-06-21T02:32:32.280Z,1009.66
2017-06-21T02:33:33.703Z,1009.69
2017-06-21T02:34:35.134Z,1009.61
2017-06-21T02:35:36.560Z,1009.62
2017-06-21T02:36:37.985Z,1009.64
2017-06-21T02:37:39.414Z,1009.65
2017-06-21T02:38:40.846Z,1009.61
2017-06-21T02:39:42.269Z,1009.61
2017-06-21T02:40:43.695Z,1009.57
2017-06-21T02:41:45.129Z,1009.57
2017-06-21T02:42:46.557Z,1009.53
2017-06-21T02:43:47.983Z,1009.56
2017-06-21T02:44:49.418Z,1009.53
2017-06-21T02:45:50.844Z,1009.51
2017-06-21T02:46:52.270Z,1009.55
2017-06-21T02:47:53.698Z,1009.59
2017-06-21T02:48:55.120Z,1009.56
2017-06-21T02:49:56.552Z,1009.60
2017-06-21T02:50:57.996Z,1009.58
2017-06-21T02:51:59.416Z,1009.58
2017-06-21T02:53:00.846Z,1009.62
2017-06-21T02:54:02.277Z,1009.59
2017-06-21T02:55:03.708Z,1009.63
2017-06-21T02:56:05.132Z,1009.57
2017-06-21T02:57:06.562Z,1009.64
2017-06-21T02:58:07.987Z,1009.60
2017-06-21T02:59:09.411Z,1009.56
2017-06-21T03:00:10.839Z,1009.55
2017-06-21T03:01:12.273Z,1009.53
2017-06-21T03:02:13.695Z,1009.55
2017-06-21T03:03:15.135Z,1009.57
2017-06-21T03:04:16.552Z,1009.58
2017-06-21T03:05:17.987Z,1009.54
2017-06-21T03:06:19.406Z,1009.51
2017-06-21T03:07:20.835Z,1009.55
2017-06-21T03:08:22.262Z,1009.53
2017-06-21T03:09:23.699Z,1009.54
2017-06-21T03:10:25.122Z,1009.56
2017-06-21T03:11:26.553Z,1009.56
2017-06-21T03:12:27.984Z,1009.57
2017-06-21T03:13:29.418Z,1009.49
2017-06-21T03:14:30.842Z,1009.48
2017-06-21T03:15:32.395Z,1009.52
2017-06-21T03:16:33.847Z,1009.50
2017-06-21T03:17:35.277Z,1009.49
2017-06-21T03:18:36.709Z,1009.53
2017-06-21T03:19:38.138Z,1009.51
2017-06-21T03:20:39.562Z,1009.50
2017-06-21T03:21:40.993Z,1009.53
2017-06-21T03:22:42.425Z,1009.51
2017-06-21T03:23:43.855Z,1009.53
2017-06-21T03:24:45.286Z,1009.55
2017-06-21T03:25:46.714Z,1009.52
2017-06-21T03:26:48.141Z,1009.52
2017-06-21T03:27:49.571Z,1009.54
2017-06-21T03:28:51.007Z,1009.55
2017-06-21T03:29:52.436Z,1009.54
2017-06-21T03:30:53.863Z,1009.52
2017-06-21T03:31:55.297Z,1009.53
2017-06-21T03:32:56.726Z,1009.59
2017-06-21T03:33:58.153Z,1009.57
2017-06-21T03:34:59.583Z,1009.55
2017-06-21T03:36:01.008Z,1009.55
2017-06-21T03:37:02.434Z,1009.53
2017-06-21T03:38:03.870Z,1009.54
2017-06-21T03:39:05.294Z,1009.52
2017-06-21T03:40:06.726Z,1009.53
2017-06-21T03:41:08.154Z,1009.51
2017-06-21T03:42:09.579Z,1009.48
2017-06-21T03:43:11.015Z,1009.52
2017-06-21T03:44:12.439Z,1009.56
2017-06-21T03:45:13.886Z,1009.55
2017-06-21T03:46:15.307Z,1009.58
2017-06-21T03:47:16.734Z,1009.52
2017-06-21T03:48:18.171Z,1009.53
2017-06-21T03:49:19.589Z,1009.55
2017-06-21T03:50:21.017Z,1009.53
2017-06-21T03:51:22.447Z,1009.52
2017-06-21T03:52:23.876Z,1009.50
2017-06-21T03:53:25.306Z,1009.51
2017-06-21T03:54:26.739Z,1009.53
2017-06-21T03:55:28.173Z,1009.53
2017-06-21T03:56:29.605Z,1009.56
2017-06-21T03:57:31.038Z,1009.58
2017-06-21T03:58:32.474Z,1009.54
2017-06-21T03:59:33.907Z,1009.58
2017-06-21T04:00:35.337Z,1009.56
2017-06-21T04:01:36.765Z,1009.52
2017-06-21T04:02:38.768Z,1009.55
2017-06-21T04:03:40.213Z,1009.55
2017-06-21T04:04:41.647Z,1009.57
2017-06-21T04:05:43.070Z,1009.50
2017-06-21T04:06:44.503Z,1009.53
2017-06-21T04:07:45.939Z,1009.54
2017-06-21T04:08:47.374Z,1009.51
2017-06-21T04:09:48.807Z,1009.48
2017-06-21T04:10:50.338Z,1009.47
2017-06-21T04:11:51.772Z,1009.51
2017-06-21T04:12:53.199Z,1009.50
2017-06-21T04:13:54.627Z,1009.47
2017-06-21T04:14:56.060Z,1009.53
2017-06-21T04:15:57.489Z,1009.52
2017-06-21T04:16:58.913Z,1009.50
2017-06-21T04:18:00.345Z,1009.50
2017-06-21T04:19:01.772Z,1009.52
2017-06-21T04:20:03.205Z,1009.49
2017-06-21T04:21:04.639Z,1009.52
2017-06-21T04:22:06.068Z,1009.51
2017-06-21T04:23:07.499Z,1009.54
2017-06-21T04:24:08.920Z,1009.56
2017-06-21T04:25:10.356Z,1009.53
2017-06-21T04:26:11.778Z,1009.56
2017-06-21T04:27:13.213Z,1009.57
2017-06-21T04:28:14.646Z,1009.59
2017-06-21T04:29:16.075Z,1009.54
2017-06-21T04:30:17.507Z,1009.58
2017-06-21T04:31:18.951Z,1009.59
2017-06-21T04:32:20.386Z,1009.59
2017-06-21T04:33:21.817Z,1009.57
2017-06-21T04:34:23.245Z,1009.64
2017-06-21T04:35:24.675Z,1009.59
2017-06-21T04:36:26.110Z,1009.58
2017-06-21T04:37:27.539Z,1009.58
2017-06-21T04:38:28.967Z,1009.62
2017-06-21T04:39:30.393Z,1009.57
2017-06-21T04:40:31.822Z,1009.63
2017-06-21T04:41:33.248Z,1009.59
2017-06-21T04:42:34.675Z,1009.63
2017-06-21T04:43:36.110Z,1009.60
2017-06-21T04:44:37.544Z,1009.61
2017-06-21T04:45:38.966Z,1009.60
2017-06-21T04:46:40.395Z,1009.64
2017-06-21T04:47:42.387Z,1009.65
2017-06-21T04:48:43.819Z,1009.66
2017-06-21T04:49:45.247Z,1009.68
2017-06-21T04:50:46.679Z,1009.68
2017-06-21T04:51:48.106Z,1009.66
2017-06-21T04:52:49.538Z,1009.66
2017-06-21T04:53:50.979Z,1009.71
2017-06-21T04:54:52.412Z,1009.65
2017-06-21T04:55:53.845Z,1009.65
2017-06-21T04:56:55.275Z,1009.67
2017-06-21T04:57:56.706Z,1009.68
2017-06-21T04:58:58.148Z,1009.70
2017-06-21T04:59:59.593Z,1009.69
2017-06-21T05:01:01.028Z,1009.70
2017-06-21T05:02:02.486Z,1009.67
2017-06-21T05:03:03.928Z,1009.67
2017-06-21T05:04:05.365Z,1009.67
2017-06-21T05:05:06.791Z,1009.68
2017-06-21T05:06:09.046Z,1009.69
2017-06-21T05:07:09.583Z,1009.64
2017-06-21T05:08:11.014Z,1009.65
2017-06-21T05:09:12.446Z,1009.65
2017-06-21T05:10:13.878Z,1009.69
2017-06-21T05:11:15.304Z,1009.71
2017-06-21T05:12:16.730Z,1009.69
2017-06-21T05:13:18.161Z,1009.69
2017-06-21T05:14:19.598Z,1009.64
2017-06-21T05:15:21.030Z,1009.65
2017-06-21T05:16:22.459Z,1009.65
2017-06-21T05:17:23.889Z,1009.64
2017-06-21T05:18:25.317Z,1009.60
2017-06-21T05:19:26.749Z,1009.64
2017-06-21T05:20:28.176Z,1009.68
2017-06-21T05:21:29.624Z,1009.67
2017-06-21T05:22:31.049Z,1009.68
2017-06-21T05:23:32.478Z,1009.67
2017-06-21T05:24:33.909Z,1009.68
2017-06-21T05:25:35.348Z,1009.69
2017-06-21T05:26:36.776Z,1009.70
2017-06-21T05:27:38.211Z,1009.70
2017-06-21T05:28:39.652Z,1009.73
2017-06-21T05:29:41.085Z,1009.72
2017-06-21T05:30:42.518Z,1009.74
2017-06-21T05:31:43.945Z,1009.70
2017-06-21T05:32:45.379Z,1009.73
2017-06-21T05:33:46.813Z,1009.71
2017-06-21T05:34:48.243Z,1009.74
2017-06-21T05:35:49.684Z,1009.76
2017-06-21T05:36:51.117Z,1009.77
2017-06-21T05:37:52.542Z,1009.78
2017-06-21T05:38:53.972Z,1009.75
2017-06-21T05:39:55.397Z,1009.82
2017-06-21T05:40:56.828Z,1009.78
2017-06-21T05:41:58.260Z,1009.78
2017-06-21T05:42:59.686Z,1009.84
2017-06-21T05:44:01.110Z,1009.81
2017-06-21T05:45:02.544Z,1009.82
2017-06-21T05:46:03.978Z,1009.81
2017-06-21T05:47:05.409Z,1009.81
2017-06-21T05:48:06.836Z,1009.82
2017-06-21T05:49:08.267Z,1009.78
2017-06-21T05:50:09.698Z,1009.75
2017-06-21T05:51:11.130Z,1009.76
2017-06-21T05:52:12.558Z,1009.75
2017-06-21T05:53:13.988Z,1009.77
2017-06-21T05:54:15.435Z,1009.77
2017-06-21T05:55:16.872Z,1009.79
2017-06-21T05:56:18.307Z,1009.77
2017-06-21T05:57:19.742Z,1009.75
2017-06-21T05:58:21.171Z,1009.74
2017-06-21T05:59:22.610Z,1009.74
2017-06-21T06:00:24.041Z,1009.80
2017-06-21T06:01:25.475Z,1009.74
2017-06-21T06:02:26.916Z,1009.76
2017-06-21T06:03:28.349Z,1009.77
2017-06-21T06:04:29.779Z,1009.79
2017-06-21T06:05:31.209Z,1009.80
2017-06-21T06:06:32.635Z,1009.80
2017-06-21T06:07:34.069Z,1009.78
2017-06-21T06:08:35.498Z,1009.81
2017-06-21T06:09:36.926Z,1009.79
2017-06-21T06:10:38.370Z,1009.83
2017-06-21T06:11:39.796Z,1009.85
2017-06-21T06:12:41.229Z,1009.84
2017-06-21T06:13:42.657Z,1009.84
2017-06-21T06:14:44.090Z,1009.87
2017-06-21T06:15:45.519Z,1009.87
2017-06-21T06:16:46.948Z,1009.86
2017-06-21T06:17:48.379Z,1009.86
2017-06-21T06:18:49.924Z,1009.83
2017-06-21T06:19:51.352Z,1009.88
2017-06-21T06:20:52.787Z,1009.89
2017-06-21T06:21:54.247Z,1009.88
2017-06-21T06:22:55.673Z,1009.91
2017-06-21T06:23:57.109Z,1009.90
2017-06-21T06:24:58.538Z,1009.88
2017-06-21T06:25:59.970Z,1009.95
2017-06-21T06:27:01.394Z,1009.96
2017-06-21T06:28:02.817Z,1009.95
2017-06-21T06:29:04.256Z,1009.94
2017-06-21T06:30:05.699Z,1009.91
2017-06-21T06:31:07.131Z,1009.93
2017-06-21T06:32:08.561Z,1009.92
2017-06-21T06:33:09.998Z,1009.93
2017-06-21T06:34:11.426Z,1009.91
2017-06-21T06:35:12.857Z,1009.89
2017-06-21T06:36:14.278Z,1009.89
2017-06-21T06:37:15.720Z,1009.87
2017-06-21T06:38:17.147Z,1009.85
2017-06-21T06:39:18.580Z,1009.81
2017-06-21T06:40:20.010Z,1009.77
2017-06-21T06:41:21.439Z,1009.78
2017-06-21T06:42:22.864Z,1009.80
2017-06-21T06:43:24.306Z,1009.77
2017-06-21T06:44:25.737Z,1009.77
2017-06-21T06:45:27.171Z,1009.74
2017-06-21T06:46:28.602Z,1009.72
2017-06-21T06:47:30.023Z,1009.73
2017-06-21T06:48:31.455Z,1009.72
2017-06-21T06:49:32.890Z,1009.66
2017-06-21T06:50:34.319Z,1009.66
2017-06-21T06:51:35.747Z,1009.68
2017-06-21T06:52:37.181Z,1009.65
2017-06-21T06:53:38.608Z,1009.63
2017-06-21T06:54:40.038Z,1009.63
2017-06-21T06:55:41.465Z,1009.61
2017-06-21T06:56:42.901Z,1009.67
2017-06-21T06:57:44.325Z,1009.66
2017-06-21T06:58:45.771Z,1009.67
2017-06-21T06:59:47.196Z,1009.64
2017-06-21T07:00:48.651Z,1009.65
2017-06-21T07:01:50.085Z,1009.66
2017-06-21T07:02:51.523Z,1009.56
2017-06-21T07:03:52.956Z,1009.65
2017-06-21T07:04:54.387Z,1009.60
2017-06-21T07:05:55.820Z,1009.64
2017-06-21T07:06:57.246Z,1009.60
2017-06-21T07:07:58.692Z,1009.60
2017-06-21T07:09:00.113Z,1009.57
2017-06-21T07:10:01.545Z,1009.60
2017-06-21T07:11:02.978Z,1009.63
2017-06-21T07:12:04.420Z,1009.63
2017-06-21T07:13:05.845Z,1009.65
2017-06-21T07:14:07.295Z,1009.63
2017-06-21T07:15:08.732Z,1009.64
2017-06-21T07:16:10.166Z,1009.63
2017-06-21T07:17:11.594Z,1009.63
2017-06-21T07:18:13.028Z,1009.68
2017-06-21T07:19:14.460Z,1009.73
2017-06-21T07:20:15.892Z,1009.66
2017-06-21T07:21:17.321Z,1009.66
2017-06-21T07:22:18.746Z,1009.68
2017-06-21T07:23:20.197Z,1009.65
2017-06-21T07:24:21.631Z,1009.62
2017-06-21T07:25:23.065Z,1009.61
2017-06-21T07:26:24.494Z,1009.57
2017-06-21T07:27:25.923Z,1009.58
2017-06-21T07:28:27.819Z,1009.58
2017-06-21T07:29:29.251Z,1009.51
2017-06-21T07:30:30.687Z,1009.53
2017-06-21T07:31:32.117Z,1009.56
2017-06-21T07:32:33.554Z,1009.54
2017-06-21T07:33:34.984Z,1009.61
2017-06-21T07:34:36.425Z,1009.61
2017-06-21T07:35:37.857Z,1009.62
2017-06-21T07:36:39.286Z,1009.63
2017-06-21T07:37:40.716Z,1009.66
2017-06-21T07:38:42.153Z,1009.60
2017-06-21T07:39:43.591Z,1009.57
2017-06-21T07:40:45.018Z,1009.57
2017-06-21T07:41:46.454Z,1009.54
2017-06-21T07:42:47.882Z,1009.51
2017-06-21T07:43:49.321Z,1009.54
2017-06-21T07:44:50.761Z,1009.54
2017-06-21T07:45:52.197Z,1009.54
2017-06-21T07:46:53.626Z,1009.59
2017-06-21T07:47:55.057Z,1009.54
2017-06-21T07:48:56.497Z,1009.51
2017-06-21T07:49:57.928Z,1009.55
2017-06-21T07:50:59.370Z,1009.58
2017-06-21T07:52:00.799Z,1009.55
2017-06-21T07:53:02.231Z,1009.56
2017-06-21T07:54:03.671Z,1009.54
2017-06-21T07:55:05.112Z,1009.51
2017-06-21T07:56:06.541Z,1009.47
2017-06-21T07:57:07.971Z,1009.46
2017-06-21T07:58:09.397Z,1009.47
2017-06-21T07:59:11.046Z,1009.48
2017-06-21T08:00:12.476Z,1009.43
2017-06-21T08:01:13.909Z,1009.44
2017-06-21T08:02:15.346Z,1009.43
2017-06-21T08:03:16.785Z,1009.47
2017-06-21T08:04:18.217Z,1009.47
2017-06-21T08:05:19.647Z,1009.46
2017-06-21T08:06:21.076Z,1009.46
2017-06-21T08:07:23.154Z,1009.49
2017-06-21T08:08:24.588Z,1009.48
2017-06-21T08:09:26.017Z,1009.46
2017-06-21T08:10:27.460Z,1009.52
2017-06-21T08:11:28.899Z,1009.51
2017-06-21T08:12:30.341Z,1009.45
2017-06-21T08:13:31.770Z,1009.44
2017-06-21T08:14:33.213Z,1009.47
2017-06-21T08:15:34.648Z,1009.44
2017-06-21T08:16:36.075Z,1009.39
2017-06-21T08:17:37.521Z,1009.41
2017-06-21T08:18:38.956Z,1009.37
2017-06-21T08:19:40.393Z,1009.35
2017-06-21T08:20:41.823Z,1009.34
2017-06-21T08:21:43.265Z,1009.35
2017-06-21T08:22:44.699Z,1009.37
2017-06-21T08:23:46.165Z,1009.36
2017-06-21T08:24:47.568Z,1009.41
2017-06-21T08:25:49.013Z,1009.39
2017-06-21T08:26:50.447Z,1009.38
2017-06-21T08:27:51.876Z,1009.40
2017-06-21T08:28:53.314Z,1009.37
2017-06-21T08:29:54.745Z,1009.40
2017-06-21T08:30:56.189Z,1009.36
2017-06-21T08:31:57.634Z,1009.36
2017-06-21T08:32:59.062Z,1009.33
2017-06-21T08:34:00.502Z,1009.34
2017-06-21T08:35:01.942Z,1009.31
2017-06-21T08:36:03.369Z,1009.31
2017-06-21T08:37:04.808Z,1009.28
2017-06-21T08:38:06.310Z,1009.31
2017-06-21T08:39:07.750Z,1009.33
2017-06-21T08:40:09.185Z,1009.31
2017-06-21T08:41:10.625Z,1009.31
2017-06-21T08:42:12.105Z,1009.35
2017-06-21T08:43:13.536Z,1009.37
2017-06-21T08:44:14.968Z,1009.31
2017-06-21T08:45:16.407Z,1009.32
2017-06-21T08:46:17.833Z,1009.31
2017-06-21T08:47:19.268Z,1009.31
2017-06-21T08:48:20.704Z,1009.28
2017-06-21T08:49:22.141Z,1009.29
2017-06-21T08:50:23.575Z,1009.25
2017-06-21T08:51:25.011Z,1009.28
2017-06-21T08:52:26.453Z,1009.26
2017-06-21T08:53:27.889Z,1009.27
2017-06-21T08:54:29.330Z,1009.24
2017-06-21T08:55:30.760Z,1009.28
2017-06-21T08:56:32.290Z,1009.23
2017-06-21T08:57:33.722Z,1009.22
2017-06-21T08:58:35.157Z,1009.21
2017-06-21T08:59:36.594Z,1009.24
2017-06-21T09:00:38.076Z,1009.23
2017-06-21T09:01:39.516Z,1009.20
2017-06-21T09:02:40.955Z,1009.24
2017-06-21T09:03:42.391Z,1009.21
2017-06-21T09:04:43.822Z,1009.20
2017-06-21T09:05:45.262Z,1009.21
2017-06-21T09:06:46.694Z,1009.20
2017-06-21T09:07:48.130Z,1009.16
2017-06-21T09:08:49.568Z,1009.20
2017-06-21T09:09:51.009Z,1009.25
2017-06-21T09:10:52.477Z,1009.17
2017-06-21T09:11:53.914Z,1009.20
2017-06-21T09:12:55.351Z,1009.21
2017-06-21T09:13:56.785Z,1009.23
2017-06-21T09:14:58.222Z,1009.20
2017-06-21T09:16:00.370Z,1009.21
2017-06-21T09:17:01.816Z,1009.25
2017-06-21T09:18:03.246Z,1009.23
2017-06-21T09:19:04.681Z,1009.17
2017-06-21T09:20:06.117Z,1009.20
2017-06-21T09:21:07.552Z,1009.18
2017-06-21T09:22:08.987Z,1009.19
2017-06-21T09:23:10.428Z,1009.19
2017-06-21T09:24:11.866Z,1009.19
2017-06-21T09:25:13.315Z,1009.18
2017-06-21T09:26:14.753Z,1009.22
2017-06-21T09:27:16.194Z,1009.17
2017-06-21T09:28:17.630Z,1009.13
2017-06-21T09:29:19.068Z,1009.15
2017-06-21T09:30:20.513Z,1009.16
2017-06-21T09:31:21.950Z,1009.12
2017-06-21T09:32:23.392Z,1009.14
2017-06-21T09:33:24.825Z,1009.15
2017-06-21T09:34:26.265Z,1009.09
2017-06-21T09:35:27.708Z,1009.11
2017-06-21T09:36:29.150Z,1009.15
2017-06-21T09:37:30.604Z,1009.14
2017-06-21T09:38:32.938Z,1009.10
2017-06-21T09:39:34.371Z,1009.08
2017-06-21T09:40:35.811Z,1009.06
2017-06-21T09:41:37.249Z,1009.09
2017-06-21T09:42:38.678Z,1009.09
2017-06-21T09:43:40.117Z,1009.04
2017-06-21T09:44:41.550Z,1009.06
2017-06-21T09:45:42.979Z,1009.04
2017-06-21T09:46:44.422Z,1009.01
2017-06-21T09:47:45.854Z,1009.07
2017-06-21T09:48:47.295Z,1009.05
2017-06-21T09:49:48.731Z,1009.08
2017-06-21T09:50:50.167Z,1009.10
2017-06-21T09:51:51.600Z,1009.11
2017-06-21T09:52:53.035Z,1009.10
2017-06-21T09:53:54.471Z,1009.08
2017-06-21T09:54:55.908Z,1009.14
2017-06-21T09:55:57.347Z,1009.12
2017-06-21T09:56:58.790Z,1009.08
2017-06-21T09:58:00.235Z,1009.06
2017-06-21T09:59:01.680Z,1009.09
2017-06-21T10:00:03.128Z,1009.12
2017-06-21T10:01:04.564Z,1009.09
2017-06-21T10:02:06.003Z,1009.09
2017-06-21T10:03:07.438Z,1009.10
2017-06-21T10:04:08.872Z,1009.11
2017-06-21T10:05:10.325Z,1009.10
2017-06-21T10:06:11.764Z,1009.11
2017-06-21T10:07:13.202Z,1009.08
2017-06-21T10:08:14.640Z,1009.08
2017-06-21T10:09:16.081Z,1009.08
2017-06-21T10:10:17.527Z,1009.08
2017-06-21T10:11:18.960Z,1009.10
2017-06-21T10:12:20.389Z,1009.07
2017-06-21T10:13:21.833Z,1009.07
2017-06-21T10:14:23.272Z,1009.12
2017-06-21T10:15:24.716Z,1009.13
2017-06-21T10:16:26.149Z,1009.13
2017-06-21T10:17:27.585Z,1009.10
2017-06-21T10:18:29.032Z,1009.11
2017-06-21T10:19:30.474Z,1009.09
2017-06-21T10:20:31.913Z,1009.10
2017-06-21T10:21:33.354Z,1009.07
2017-06-21T10:22:34.791Z,1009.07
2017-06-21T10:23:36.229Z,1009.07
2017-06-21T10:24:37.666Z,1009.09
2017-06-21T10:25:39.118Z,1009.06
2017-06-21T10:26:40.553Z,1009.05
2017-06-21T10:27:42.001Z,1009.04
2017-06-21T10:28:43.445Z,1009.06
2017-06-21T10:29:44.885Z,1009.00
2017-06-21T10:30:46.329Z,1009.07
2017-06-21T10:31:47.761Z,1009.02
2017-06-21T10:32:49.201Z,1009.03
2017-06-21T10:33:50.637Z,1009.02
2017-06-21T10:34:52.075Z,1009.02
2017-06-21T10:35:53.512Z,1009.02
2017-06-21T10:36:54.949Z,1009.02
2017-06-21T10:37:57.081Z,1009.06
2017-06-21T10:38:58.518Z,1009.02
2017-06-21T10:39:59.952Z,1009.01
2017-06-21T10:41:01.390Z,1009.06
2017-06-21T10:42:02.825Z,1009.05
2017-06-21T10:43:04.262Z,1009.09
2017-06-21T10:44:05.704Z,1009.08
2017-06-21T10:45:07.144Z,1009.10
2017-06-21T10:46:08.577Z,1009.13
2017-06-21T10:47:10.036Z,1009.08
2017-06-21T10:48:11.473Z,1009.07
2017-06-21T10:49:12.911Z,1009.08
2017-06-21T10:50:14.361Z,1009.11
2017-06-21T10:51:15.799Z,1009.10
2017-06-21T10:52:17.238Z,1009.07
2017-06-21T10:53:18.670Z,1009.08
2017-06-21T10:54:20.114Z,1009.12
2017-06-21T10:55:21.553Z,1009.13
2017-06-21T10:56:22.989Z,1009.15
2017-06-21T10:57:24.427Z,1009.17
2017-06-21T10:58:26.529Z,1009.16
2017-06-21T10:59:27.967Z,1009.16
2017-06-21T11:00:29.418Z,1009.15
2017-06-21T11:01:30.914Z,1009.12
2017-06-21T11:02:32.348Z,1009.11
2017-06-21T11:03:33.799Z,1009.11
2017-06-21T11:04:35.237Z,1009.05
2017-06-21T11:05:36.671Z,1009.08
2017-06-21T11:06:38.109Z,1009.07
2017-06-21T11:07:39.546Z,1009.10
2017-06-21T11:08:40.989Z,1009.10
2017-06-21T11:09:42.895Z,1009.06
2017-06-21T11:10:44.340Z,1009.09
2017-06-21T11:11:45.878Z,1009.10
2017-06-21T11:12:47.317Z,1009.09
2017-06-21T11:13:48.772Z,1009.12
2017-06-21T11:14:50.216Z,1009.10
2017-06-21T11:15:51.661Z,1009.08
2017-06-21T11:16:53.611Z,1009.07
2017-06-21T11:17:55.060Z,1009.02
2017-06-21T11:18:56.515Z,1009.02
2017-06-21T11:19:57.951Z,1009.08
2017-06-21T11:20:59.394Z,1009.10
2017-06-21T11:22:00.835Z,1009.04
2017-06-21T11:23:02.278Z,1009.03
2017-06-21T11:24:03.710Z,1008.97
2017-06-21T11:25:05.153Z,1008.96
2017-06-21T11:26:06.610Z,1008.96
2017-06-21T11:27:08.033Z,1008.97
2017-06-21T11:28:09.459Z,1008.99
2017-06-21T11:29:12.085Z,1008.93
2017-06-21T11:30:13.520Z,1008.93
2017-06-21T11:31:14.963Z,1008.92
2017-06-21T11:32:16.399Z,1008.97
2017-06-21T11:33:17.841Z,1008.92
2017-06-21T11:34:19.280Z,1008.94
2017-06-21T11:35:20.730Z,1008.95
2017-06-21T11:36:22.181Z,1008.95
2017-06-21T11:37:23.622Z,1008.93
2017-06-21T11:38:25.060Z,1008.94
2017-06-21T11:39:26.505Z,1008.94
2017-06-21T11:40:27.938Z,1008.91
2017-06-21T11:41:29.379Z,1008.90
2017-06-21T11:42:30.808Z,1008.86
2017-06-21T11:43:32.247Z,1008.86
2017-06-21T11:44:33.689Z,1008.83
2017-06-21T11:45:35.124Z,1008.83
2017-06-21T11:46:36.561Z,1008.76
2017-06-21T11:47:37.999Z,1008.79
2017-06-21T11:48:39.428Z,1008.72
2017-06-21T11:49:40.869Z,1008.69
2017-06-21T11:50:42.305Z,1008.67
2017-06-21T11:51:43.745Z,1008.63
2017-06-21T11:52:45.184Z,1008.63
2017-06-21T11:53:46.620Z,1008.65
2017-06-21T11:54:48.063Z,1008.63
2017-06-21T11:55:49.517Z,1008.66
2017-06-21T11:56:50.951Z,1008.68
2017-06-21T11:57:52.392Z,1008.70
2017-06-21T11:58:53.829Z,1008.72
2017-06-21T11:59:55.274Z,1008.71
2017-06-21T12:00:56.717Z,1008.66
2017-06-21T12:01:58.154Z,1008.67
2017-06-21T12:02:59.593Z,1008.71
2017-06-21T12:04:01.033Z,1008.72
2017-06-21T12:05:02.469Z,1008.68
2017-06-21T12:06:03.909Z,1008.65
2017-06-21T12:07:05.358Z,1008.60
2017-06-21T12:08:06.798Z,1008.56
2017-06-21T12:09:08.235Z,1008.59
2017-06-21T12:10:09.681Z,1008.62
2017-06-21T12:11:11.116Z,1008.62
2017-06-21T12:12:12.554Z,1008.62
2017-06-21T12:13:13.992Z,1008.54
2017-06-21T12:14:15.431Z,1008.67
2017-06-21T12:15:16.872Z,1008.58
2017-06-21T12:16:18.320Z,1008.54
2017-06-21T12:17:19.752Z,1008.53
2017-06-21T12:18:21.191Z,1008.53
2017-06-21T12:19:22.630Z,1008.51
2017-06-21T12:20:24.071Z,1008.47
2017-06-21T12:21:25.506Z,1008.50
2017-06-21T12:22:26.956Z,1008.46
2017-06-21T12:23:28.384Z,1008.43